createdAt,value
2022-11-01T00:00:14.350Z,21.50
2022-11-01T00:02:21.103Z,21.50
2022-11-01T00:04:28.486Z,21.60
2022-11-01T00:06:35.427Z,21.60
2022-11-01T00:08:42.620Z,21.70
2022-11-01T00:10:49.531Z,21.70
2022-11-01T00:12:58.715Z,21.80
2022-11-01T00:15:05.751Z,21.80
2022-11-01T00:17:12.927Z,21.80
2022-11-01T00:19:20.111Z,21.80
2022-11-01T00:21:27.671Z,22.00
2022-11-01T00:23:34.427Z,21.90
2022-11-01T00:25:41.320Z,22.00
2022-11-01T00:27:48.535Z,22.10
2022-11-01T00:29:57.144Z,22.10
2022-11-01T00:32:04.267Z,22.20
2022-11-01T00:34:11.194Z,22.30
2022-11-01T00:36:18.702Z,22.40
2022-11-01T00:38:25.471Z,22.50
2022-11-01T00:40:32.777Z,22.50
2022-11-01T00:42:39.516Z,22.60
2022-11-01T00:44:46.443Z,22.70
2022-11-01T00:46:55.035Z,22.80
2022-11-01T00:49:02.165Z,22.80
2022-11-01T00:51:09.262Z,22.90
2022-11-01T00:53:16.518Z,23.00
2022-11-01T00:55:23.898Z,23.00
2022-11-01T00:57:30.819Z,23.10
2022-11-01T00:59:40.880Z,23.10
2022-11-01T01:01:48.309Z,23.20
2022-11-01T01:03:57.040Z,23.20
2022-11-01T01:06:04.003Z,23.30
2022-11-01T01:08:10.939Z,23.30
2022-11-01T01:10:18.349Z,23.40
2022-11-01T01:12:25.249Z,23.40
2022-11-01T01:17:04.280Z,23.60
2022-11-01T01:19:12.898Z,23.60
2022-11-01T01:21:19.776Z,23.70
2022-11-01T01:23:26.830Z,23.70
2022-11-01T01:25:33.574Z,23.80
2022-11-01T01:27:40.588Z,23.80
2022-11-01T01:29:47.991Z,23.80
2022-11-01T01:31:54.907Z,23.90
2022-11-01T01:34:01.903Z,23.90
2022-11-01T01:36:11.223Z,24.00
2022-11-01T01:38:18.417Z,24.00
2022-11-01T01:40:25.163Z,24.10
2022-11-01T01:42:32.897Z,24.20
2022-11-01T01:45:15.622Z,24.20
2022-11-01T01:47:26.042Z,24.30
2022-11-01T01:49:33.780Z,24.30
2022-11-01T01:51:44.156Z,24.30
2022-11-01T01:53:54.541Z,24.40
2022-11-01T01:56:04.130Z,24.50
2022-11-01T01:58:13.434Z,24.50
2022-11-01T02:00:20.599Z,24.60
2022-11-01T02:02:27.634Z,24.60
2022-11-01T02:04:38.879Z,24.70
2022-11-01T02:06:47.409Z,24.70
2022-11-01T02:08:57.316Z,24.80
2022-11-01T02:11:05.724Z,24.90
2022-11-01T02:13:17.059Z,25.00
2022-11-01T02:15:26.906Z,25.00
2022-11-01T02:17:42.002Z,25.00
2022-11-01T02:20:22.602Z,25.10
2022-11-01T02:22:46.387Z,25.10
2022-11-01T02:25:23.954Z,25.10
2022-11-01T02:27:37.945Z,25.20
2022-11-01T02:30:07.908Z,25.20
2022-11-01T02:32:22.978Z,25.20
2022-11-01T02:34:37.046Z,25.20
2022-11-01T02:36:47.200Z,25.30
2022-11-01T02:38:59.941Z,25.30
2022-11-01T02:41:13.975Z,25.30
2022-11-01T02:43:24.124Z,25.40
2022-11-01T02:45:35.313Z,25.40
2022-11-01T02:47:45.010Z,25.40
2022-11-01T02:49:54.127Z,25.50
2022-11-01T02:52:02.495Z,25.60
2022-11-01T02:54:11.558Z,25.60
2022-11-01T02:56:20.828Z,25.70
2022-11-01T02:58:30.529Z,25.80
2022-11-01T03:00:38.695Z,25.80
2022-11-01T03:02:49.546Z,25.90
2022-11-01T03:04:56.350Z,26.00
2022-11-01T03:07:07.910Z,26.00
2022-11-01T03:09:16.536Z,26.10
2022-11-01T03:11:24.769Z,26.20
2022-11-01T03:13:44.792Z,26.30
2022-11-01T03:15:59.775Z,26.30
2022-11-01T03:18:13.360Z,26.40
2022-11-01T03:20:25.485Z,26.40
2022-11-01T03:22:39.120Z,26.50
2022-11-01T03:24:51.220Z,26.60
2022-11-01T03:27:05.036Z,26.70
2022-11-01T03:29:14.937Z,26.80
2022-11-01T03:31:25.529Z,26.80
2022-11-01T03:33:36.062Z,26.90
2022-11-01T03:35:45.111Z,26.90
2022-11-01T03:37:54.028Z,26.90
2022-11-01T03:40:05.425Z,27.00
2022-11-01T03:42:17.369Z,27.00
2022-11-01T03:44:24.443Z,27.00
2022-11-01T03:46:31.471Z,27.10
2022-11-01T03:48:42.703Z,27.20
2022-11-01T03:50:53.947Z,27.30
2022-11-01T03:53:00.960Z,27.30
2022-11-01T03:55:19.111Z,27.40
2022-11-01T03:57:26.509Z,27.40
2022-11-01T03:59:33.346Z,27.50
2022-11-01T04:01:40.895Z,27.60
2022-11-01T04:03:49.814Z,27.60
2022-11-01T04:05:56.687Z,27.70
2022-11-01T04:08:03.582Z,27.80
2022-11-01T04:10:11.520Z,27.90
2022-11-01T04:12:18.261Z,28.00
2022-11-01T04:14:41.435Z,28.00
2022-11-01T04:17:04.920Z,28.10
2022-11-01T04:19:30.231Z,28.10
2022-11-01T04:21:37.523Z,28.20
2022-11-01T04:23:44.413Z,28.20
2022-11-01T04:25:51.313Z,28.20
2022-11-01T04:27:58.596Z,28.20
2022-11-01T04:30:05.908Z,28.30
2022-11-01T04:32:12.868Z,28.30
2022-11-01T04:34:41.459Z,28.40
2022-11-01T04:36:48.927Z,28.40
2022-11-01T04:38:58.261Z,28.40
2022-11-01T04:41:05.422Z,28.40
2022-11-01T04:43:12.305Z,28.40
2022-11-01T04:45:19.440Z,28.50
2022-11-01T04:47:26.278Z,28.60
2022-11-01T04:49:35.289Z,28.60
2022-11-01T04:51:42.537Z,28.60
2022-11-01T04:53:49.582Z,28.60
2022-11-01T04:55:56.448Z,28.50
2022-11-01T04:58:03.236Z,28.50
2022-11-01T05:00:12.762Z,28.60
2022-11-01T05:02:20.097Z,28.60
2022-11-01T05:04:27.504Z,28.70
2022-11-01T05:06:36.353Z,28.70
2022-11-01T05:08:44.164Z,28.80
2022-11-01T05:10:55.455Z,28.80
2022-11-01T05:13:02.493Z,28.90
2022-11-01T05:15:11.112Z,28.90
2022-11-01T05:17:18.016Z,28.90
2022-11-01T05:19:25.129Z,28.90
2022-11-01T05:21:31.982Z,28.90
2022-11-01T05:23:40.963Z,28.90
2022-11-01T05:25:48.119Z,29.00
2022-11-01T05:27:55.191Z,29.00
2022-11-01T05:30:02.048Z,29.00
2022-11-01T05:32:09.204Z,29.10
2022-11-01T05:34:16.565Z,29.00
2022-11-01T05:36:23.711Z,29.10
2022-11-01T05:38:30.599Z,29.20
2022-11-01T05:40:39.571Z,29.30
2022-11-01T05:42:46.419Z,29.40
2022-11-01T05:44:53.575Z,29.40
2022-11-01T05:47:00.693Z,29.40
2022-11-01T05:49:07.985Z,29.30
2022-11-01T05:51:14.931Z,29.30
2022-11-01T05:53:21.883Z,29.20
2022-11-01T05:55:28.643Z,29.30
2022-11-01T05:57:37.353Z,29.30
2022-11-01T05:59:44.251Z,29.20
2022-11-01T06:01:51.589Z,29.40
2022-11-01T06:04:02.702Z,29.40
2022-11-01T06:06:10.021Z,29.30
2022-11-01T06:08:16.773Z,29.30
2022-11-01T06:10:23.833Z,29.30
2022-11-01T06:12:30.686Z,29.30
2022-11-01T06:14:39.552Z,29.30
2022-11-01T06:16:47.422Z,29.50
2022-11-01T06:18:54.423Z,29.60
2022-11-01T06:21:01.932Z,29.60
2022-11-01T06:23:13.753Z,29.60
2022-11-01T06:25:21.436Z,29.60
2022-11-01T06:27:28.368Z,29.60
2022-11-01T06:29:35.494Z,29.70
2022-11-01T06:31:44.009Z,29.80
2022-11-01T06:33:53.083Z,29.80
2022-11-01T06:35:59.866Z,29.80
2022-11-01T06:38:07.810Z,29.80
2022-11-01T06:40:15.820Z,29.80
2022-11-01T06:42:23.143Z,29.80
2022-11-01T06:44:29.940Z,29.90
2022-11-01T06:46:37.145Z,30.00
2022-11-01T06:48:45.746Z,30.00
2022-11-01T06:50:54.735Z,29.90
2022-11-01T06:53:01.755Z,30.00
2022-11-01T06:55:09.618Z,30.00
2022-11-01T06:57:16.414Z,30.00
2022-11-01T06:59:23.161Z,29.80
2022-11-01T07:01:30.351Z,29.80
2022-11-01T07:03:37.587Z,29.70
2022-11-01T07:05:46.218Z,29.70
2022-11-01T07:07:53.739Z,29.70
2022-11-01T07:10:02.549Z,29.60
2022-11-01T07:12:09.993Z,29.60
2022-11-01T07:14:17.047Z,29.60
2022-11-01T07:16:24.117Z,29.60
2022-11-01T07:18:32.794Z,29.50
2022-11-01T07:20:43.884Z,29.50
2022-11-01T07:22:59.779Z,29.50
2022-11-01T07:25:07.552Z,29.50
2022-11-01T07:27:19.443Z,29.50
2022-11-01T07:29:27.932Z,29.60
2022-11-01T07:31:36.045Z,29.70
2022-11-01T07:33:47.283Z,29.70
2022-11-01T07:35:54.383Z,29.80
2022-11-01T07:38:06.698Z,29.80
2022-11-01T07:40:18.565Z,29.80
2022-11-01T07:42:25.322Z,29.80
2022-11-01T07:44:32.042Z,29.80
2022-11-01T07:46:39.079Z,29.70
2022-11-01T07:48:45.797Z,29.80
2022-11-01T07:50:52.875Z,29.90
2022-11-01T07:53:08.634Z,30.00
2022-11-01T07:55:15.473Z,30.00
2022-11-01T07:57:22.332Z,30.00
2022-11-01T07:59:29.413Z,30.10
2022-11-01T08:01:36.392Z,30.00
2022-11-01T08:03:43.371Z,30.00
2022-11-01T08:05:50.993Z,29.90
2022-11-01T08:07:57.709Z,30.00
2022-11-01T08:10:06.538Z,30.00
2022-11-01T08:12:13.285Z,30.00
2022-11-01T08:14:20.409Z,30.00
2022-11-01T08:16:27.211Z,29.90
2022-11-01T08:18:34.552Z,29.80
2022-11-01T08:20:41.938Z,29.70
2022-11-01T08:22:48.986Z,29.60
2022-11-01T08:24:56.299Z,29.70
2022-11-01T08:27:05.309Z,29.60
2022-11-01T08:29:12.266Z,29.60
2022-11-01T08:31:19.018Z,29.50
2022-11-01T08:33:25.843Z,29.50
2022-11-01T08:35:33.464Z,29.50
2022-11-01T08:37:40.217Z,29.40
2022-11-01T08:39:47.018Z,29.40
2022-11-01T08:41:54.733Z,29.30
2022-11-01T08:44:04.023Z,29.30
2022-11-01T08:46:11.855Z,29.30
2022-11-01T08:48:18.669Z,29.30
2022-11-01T08:50:25.458Z,29.30
2022-11-01T08:52:32.310Z,29.30
2022-11-01T08:54:39.090Z,29.30
2022-11-01T08:56:45.879Z,29.30
2022-11-01T08:58:53.268Z,29.30
2022-11-01T09:01:01.961Z,29.30
2022-11-01T09:03:09.180Z,29.30
2022-11-01T09:05:15.922Z,29.20
2022-11-01T09:07:22.937Z,29.20
2022-11-01T09:09:30.358Z,29.20
2022-11-01T09:11:37.246Z,29.20
2022-11-01T09:13:44.386Z,29.20
2022-11-01T09:15:51.708Z,29.10
2022-11-01T09:18:00.624Z,29.10
2022-11-01T09:20:08.003Z,29.10
2022-11-01T09:22:14.874Z,29.10
2022-11-01T09:24:21.785Z,29.00
2022-11-01T09:26:30.252Z,29.00
2022-11-01T09:28:37.571Z,28.90
2022-11-01T09:30:49.735Z,28.90
2022-11-01T09:33:10.989Z,28.90
2022-11-01T09:35:19.070Z,28.80
2022-11-01T09:37:26.375Z,28.80
2022-11-01T09:39:33.489Z,28.70
2022-11-01T09:41:43.761Z,28.70
2022-11-01T09:43:52.518Z,28.60
2022-11-01T09:46:01.378Z,28.60
2022-11-01T09:48:11.246Z,28.50
2022-11-01T09:50:23.593Z,28.50
2022-11-01T09:52:30.352Z,28.40
2022-11-01T09:54:37.793Z,28.40
2022-11-01T09:56:48.298Z,28.40
2022-11-01T09:59:04.933Z,28.30
2022-11-01T10:01:32.108Z,28.30
2022-11-01T10:03:52.912Z,28.20
2022-11-01T10:06:06.083Z,28.10
2022-11-01T10:08:19.748Z,28.10
2022-11-01T10:10:39.042Z,28.00
2022-11-01T10:13:00.202Z,28.00
2022-11-01T10:15:28.021Z,28.00
2022-11-01T10:17:52.108Z,28.00
2022-11-01T10:20:01.467Z,27.90
2022-11-01T10:22:15.199Z,27.90
2022-11-01T10:24:31.847Z,27.90
2022-11-01T10:26:45.370Z,27.90
2022-11-01T10:29:00.819Z,27.80
2022-11-01T10:31:13.785Z,27.70
2022-11-01T10:33:30.132Z,27.70
2022-11-01T10:35:41.743Z,27.70
2022-11-01T10:38:04.152Z,27.60
2022-11-01T10:40:22.407Z,27.50
2022-11-01T10:42:32.206Z,27.40
2022-11-01T10:44:43.106Z,27.40
2022-11-01T10:46:52.854Z,27.30
2022-11-01T10:49:03.514Z,27.20
2022-11-01T10:51:14.207Z,27.00
2022-11-01T10:53:22.958Z,26.70
2022-11-01T10:55:38.118Z,26.50
2022-11-01T10:57:50.451Z,26.50
2022-11-01T10:59:59.356Z,26.50
2022-11-01T11:02:11.516Z,26.50
2022-11-01T11:04:22.532Z,26.50
2022-11-01T11:06:31.357Z,26.30
2022-11-01T11:08:41.632Z,26.00
2022-11-01T11:10:49.826Z,25.90
2022-11-01T11:13:00.648Z,25.90
2022-11-01T11:15:21.290Z,25.80
2022-11-01T11:17:31.725Z,25.70
2022-11-01T11:19:40.164Z,25.70
2022-11-01T11:21:51.290Z,25.60
2022-11-01T11:23:58.125Z,25.50
2022-11-01T11:26:06.343Z,25.40
2022-11-01T11:28:28.098Z,25.40
2022-11-01T11:30:36.332Z,25.50
2022-11-01T11:32:51.222Z,25.40
2022-11-01T11:35:00.566Z,25.40
2022-11-01T11:37:11.422Z,25.40
2022-11-01T11:39:28.941Z,25.40
2022-11-01T11:41:37.876Z,25.40
2022-11-01T11:43:44.767Z,25.20
2022-11-01T11:46:07.745Z,25.10
2022-11-01T11:48:25.013Z,25.00
2022-11-01T11:50:38.862Z,24.90
2022-11-01T11:52:48.073Z,24.90
2022-11-01T11:54:55.013Z,24.70
2022-11-01T11:57:13.718Z,24.70
2022-11-01T11:59:27.022Z,24.80
2022-11-01T12:01:35.457Z,24.80
2022-11-01T12:03:51.585Z,24.70
2022-11-01T12:06:02.490Z,24.70
2022-11-01T12:08:28.150Z,24.60
2022-11-01T12:10:39.999Z,24.60
2022-11-01T12:12:57.396Z,24.50
2022-11-01T12:15:05.453Z,24.40
2022-11-01T12:17:34.019Z,24.40
2022-11-01T12:19:40.833Z,24.30
2022-11-01T12:21:48.727Z,24.20
2022-11-01T12:24:04.078Z,24.10
2022-11-01T12:26:16.684Z,24.10
2022-11-01T12:28:30.026Z,24.10
2022-11-01T12:30:41.204Z,24.10
2022-11-01T12:32:54.067Z,24.10
2022-11-01T12:35:04.324Z,24.10
2022-11-01T12:37:20.003Z,24.10
2022-11-01T12:39:38.602Z,24.10
2022-11-01T12:41:49.931Z,24.10
2022-11-01T12:44:07.203Z,24.00
2022-11-01T12:46:20.833Z,24.00
2022-11-01T12:48:32.109Z,24.00
2022-11-01T12:50:45.999Z,24.00
2022-11-01T12:52:59.091Z,23.90
2022-11-01T12:55:20.630Z,23.80
2022-11-01T12:57:28.433Z,23.70
2022-11-01T12:59:39.915Z,23.60
2022-11-01T13:01:55.384Z,23.50
2022-11-01T13:04:19.112Z,23.50
2022-11-01T13:06:51.175Z,23.50
2022-11-01T13:09:01.428Z,23.50
2022-11-01T13:11:21.718Z,23.40
2022-11-01T13:13:35.863Z,23.40
2022-11-01T13:15:54.160Z,23.40
2022-11-01T13:18:12.805Z,23.40
2022-11-01T13:20:40.683Z,23.40
2022-11-01T13:22:55.432Z,23.30
2022-11-01T13:25:08.451Z,23.10
2022-11-01T13:27:24.439Z,23.10
2022-11-01T13:29:38.942Z,23.10
2022-11-01T13:31:54.108Z,23.20
2022-11-01T13:34:13.527Z,23.10
2022-11-01T13:36:28.732Z,23.10
2022-11-01T13:38:46.122Z,23.10
2022-11-01T13:41:02.313Z,23.10
2022-11-01T13:43:15.688Z,23.10
2022-11-01T13:45:52.463Z,23.10
2022-11-01T13:48:08.759Z,23.10
2022-11-01T13:50:49.220Z,23.10
2022-11-01T13:53:02.139Z,23.10
2022-11-01T13:55:22.323Z,23.10
2022-11-01T13:57:31.246Z,23.10
2022-11-01T13:59:48.462Z,22.90
2022-11-01T14:02:08.324Z,22.80
2022-11-01T14:04:41.895Z,22.70
2022-11-01T14:06:54.450Z,22.50
2022-11-01T14:09:32.966Z,22.40
2022-11-01T14:11:50.851Z,22.40
2022-11-01T14:13:57.929Z,22.40
2022-11-01T14:16:25.486Z,22.30
2022-11-01T14:18:33.080Z,22.40
2022-11-01T14:20:54.341Z,22.40
2022-11-01T14:23:23.231Z,22.30
2022-11-01T14:25:35.381Z,22.20
2022-11-01T14:27:50.411Z,22.10
2022-11-01T14:29:59.725Z,22.20
2022-11-01T14:32:09.262Z,22.10
2022-11-01T14:34:28.587Z,22.20
2022-11-01T14:36:40.783Z,22.30
2022-11-01T14:38:55.946Z,22.30
2022-11-01T14:41:03.950Z,22.30
2022-11-01T14:43:21.009Z,22.40
2022-11-01T14:45:34.182Z,22.40
2022-11-01T14:47:45.566Z,22.40
2022-11-01T14:49:53.974Z,22.40
2022-11-01T14:52:04.739Z,22.40
2022-11-01T14:54:20.215Z,22.40
2022-11-01T14:56:40.717Z,22.40
2022-11-01T14:58:48.864Z,22.40
2022-11-01T15:00:57.471Z,22.30
2022-11-01T15:03:09.370Z,22.30
2022-11-01T15:05:18.958Z,22.20
2022-11-01T15:07:30.887Z,22.10
2022-11-01T15:09:39.057Z,22.10
2022-11-01T15:11:46.393Z,22.00
2022-11-01T15:13:55.826Z,22.00
2022-11-01T15:16:13.350Z,22.10
2022-11-01T15:18:23.755Z,22.10
2022-11-01T15:20:35.341Z,22.10
2022-11-01T15:22:44.110Z,22.00
2022-11-01T15:24:55.747Z,21.90
2022-11-01T15:27:09.073Z,21.80
2022-11-01T15:29:21.220Z,21.70
2022-11-01T15:31:29.324Z,21.70
2022-11-01T15:33:38.862Z,21.60
2022-11-01T15:35:46.554Z,21.60
2022-11-01T15:37:56.040Z,21.70
2022-11-01T15:40:03.631Z,21.70
2022-11-01T15:42:18.601Z,21.80
2022-11-01T15:44:27.109Z,21.90
2022-11-01T15:46:36.388Z,22.00
2022-11-01T15:48:45.158Z,22.00
2022-11-01T15:50:55.667Z,22.00
2022-11-01T15:53:05.896Z,21.90
2022-11-01T15:55:21.037Z,21.80
2022-11-01T15:57:31.958Z,21.80
2022-11-01T15:59:45.590Z,21.80
2022-11-01T16:01:53.854Z,21.80
2022-11-01T16:04:08.555Z,21.80
2022-11-01T16:06:20.602Z,21.80
2022-11-01T16:08:32.340Z,21.80
2022-11-01T16:10:39.879Z,21.70
2022-11-01T16:12:49.570Z,21.50
2022-11-01T16:14:59.208Z,21.40
2022-11-01T16:17:08.484Z,21.30
2022-11-01T16:21:52.090Z,21.30
2022-11-01T16:24:09.213Z,21.40
2022-11-01T16:26:16.897Z,21.50
2022-11-01T16:28:39.644Z,21.60
2022-11-01T16:30:51.535Z,21.60
2022-11-01T16:32:58.973Z,21.70
2022-11-01T16:35:32.471Z,21.70
2022-11-01T16:37:47.537Z,21.60
2022-11-01T16:39:54.719Z,21.50
2022-11-01T16:42:02.467Z,21.40
2022-11-01T16:44:17.788Z,21.30
2022-11-01T16:46:25.992Z,21.30
2022-11-01T16:48:35.068Z,21.30
2022-11-01T16:50:42.197Z,21.40
2022-11-01T16:52:51.378Z,21.40
2022-11-01T16:57:07.941Z,21.20
2022-11-01T16:59:30.743Z,21.10
2022-11-01T17:01:38.363Z,21.10
2022-11-01T17:03:45.413Z,21.10
2022-11-01T17:05:56.239Z,21.00
2022-11-01T17:08:05.900Z,21.00
2022-11-01T17:10:20.727Z,21.10
2022-11-01T17:12:28.063Z,21.10
2022-11-01T17:14:37.171Z,21.10
2022-11-01T17:16:47.774Z,21.00
2022-11-01T17:18:58.572Z,21.00
2022-11-01T17:21:08.976Z,21.00
2022-11-01T17:23:21.737Z,21.10
2022-11-01T17:25:30.967Z,21.20
2022-11-01T17:27:38.864Z,21.20
2022-11-01T17:29:46.098Z,21.20
2022-11-01T17:31:53.177Z,21.20
2022-11-01T17:34:00.769Z,21.20
2022-11-01T17:36:08.411Z,21.30
2022-11-01T17:38:20.714Z,21.30
2022-11-01T17:40:28.712Z,21.30
2022-11-01T17:42:36.202Z,21.30
2022-11-01T17:44:43.286Z,21.30
2022-11-01T17:46:50.312Z,21.30
2022-11-01T17:48:58.105Z,21.30
2022-11-01T17:51:05.444Z,21.30
2022-11-01T17:53:18.459Z,21.40
2022-11-01T17:55:25.488Z,21.40
2022-11-01T17:57:32.821Z,21.40
2022-11-01T17:59:39.849Z,21.40
2022-11-01T18:01:47.355Z,21.50
2022-11-01T18:03:54.725Z,21.40
2022-11-01T18:06:02.780Z,21.40
2022-11-01T18:08:21.839Z,21.40
2022-11-01T18:10:40.234Z,21.40
2022-11-01T18:13:08.714Z,21.40
2022-11-01T18:15:25.010Z,21.40
2022-11-01T18:17:48.500Z,21.30
2022-11-01T18:20:00.876Z,21.10
2022-11-01T18:22:12.869Z,21.00
2022-11-01T18:24:35.719Z,20.90
2022-11-01T18:26:43.106Z,20.90
2022-11-01T18:28:50.442Z,20.90
2022-11-01T18:30:59.927Z,20.90
2022-11-01T18:33:13.457Z,20.90
2022-11-01T18:35:31.926Z,20.90
2022-11-01T18:37:44.208Z,20.90
2022-11-01T18:40:01.599Z,20.80
2022-11-01T18:42:12.339Z,20.80
2022-11-01T18:44:19.355Z,20.80
2022-11-01T18:46:27.763Z,20.80
2022-11-01T18:48:35.779Z,20.80
2022-11-01T18:50:43.103Z,20.70
2022-11-01T18:52:50.346Z,20.60
2022-11-01T18:54:59.065Z,20.60
2022-11-01T18:57:15.206Z,20.50
2022-11-01T18:59:31.962Z,20.50
2022-11-01T19:01:41.536Z,20.50
2022-11-01T19:03:48.782Z,20.50
2022-11-01T19:05:55.913Z,20.50
2022-11-01T19:08:20.869Z,20.50
2022-11-01T19:10:29.989Z,20.50
2022-11-01T19:12:41.137Z,20.50
2022-11-01T19:14:52.986Z,20.50
2022-11-01T19:17:01.619Z,20.50
2022-11-01T19:19:17.095Z,20.50
2022-11-01T19:21:26.274Z,20.60
2022-11-01T19:23:40.010Z,20.60
2022-11-01T19:25:48.882Z,20.70
2022-11-01T19:27:58.932Z,20.70
2022-11-01T19:30:06.421Z,20.70
2022-11-01T19:32:17.439Z,20.80
2022-11-01T19:34:27.029Z,20.80
2022-11-01T19:36:40.932Z,20.80
2022-11-01T19:38:49.074Z,20.80
2022-11-01T19:40:58.352Z,20.70
2022-11-01T19:43:15.108Z,20.60
2022-11-01T19:45:35.550Z,20.60
2022-11-01T19:47:43.552Z,20.50
2022-11-01T19:49:50.893Z,20.40
2022-11-01T19:52:18.037Z,20.40
2022-11-01T19:54:25.115Z,20.40
2022-11-01T19:56:35.677Z,20.50
2022-11-01T19:58:47.063Z,20.70
2022-11-01T20:00:55.553Z,20.70
2022-11-01T20:03:05.919Z,20.80
2022-11-01T20:05:30.270Z,20.70
2022-11-01T20:07:37.594Z,20.60
2022-11-01T20:09:45.187Z,20.50
2022-11-01T20:11:54.263Z,20.40
2022-11-01T20:14:01.343Z,20.40
2022-11-01T20:16:08.624Z,20.30
2022-11-01T20:18:15.859Z,20.30
2022-11-01T20:20:23.141Z,20.40
2022-11-01T20:22:30.783Z,20.40
2022-11-01T20:24:37.863Z,20.40
2022-11-01T20:26:44.943Z,20.40
2022-11-01T20:28:53.966Z,20.40
2022-11-01T20:31:01.199Z,20.40
2022-11-01T20:33:08.791Z,20.40
2022-11-01T20:35:15.818Z,20.30
2022-11-01T20:37:28.594Z,20.30
2022-11-01T20:39:35.919Z,20.30
2022-11-01T20:41:42.893Z,20.30
2022-11-01T20:43:52.482Z,20.40
2022-11-01T20:45:59.666Z,20.40
2022-11-01T20:48:08.483Z,20.40
2022-11-01T20:50:17.354Z,20.30
2022-11-01T20:52:39.316Z,20.30
2022-11-01T20:54:47.436Z,20.30
2022-11-01T20:56:54.672Z,20.20
2022-11-01T20:59:03.654Z,20.20
2022-11-01T21:01:17.380Z,20.20
2022-11-01T21:03:25.735Z,20.10
2022-11-01T21:05:35.785Z,20.20
2022-11-01T21:07:47.975Z,20.10
2022-11-01T21:09:55.883Z,20.20
2022-11-01T21:12:03.169Z,20.20
2022-11-01T21:14:16.901Z,20.20
2022-11-01T21:16:33.402Z,20.30
2022-11-01T21:18:45.190Z,20.30
2022-11-01T21:20:53.141Z,20.30
2022-11-01T21:23:03.919Z,20.30
2022-11-01T21:25:22.969Z,20.40
2022-11-01T21:27:32.658Z,20.40
2022-11-01T21:29:43.780Z,20.40
2022-11-01T21:31:51.066Z,20.40
2022-11-01T21:33:59.836Z,20.40
2022-11-01T21:36:17.255Z,20.40
2022-11-01T21:38:40.772Z,20.30
2022-11-01T21:40:47.747Z,20.30
2022-11-01T21:42:55.189Z,20.30
2022-11-01T21:45:05.536Z,20.30
2022-11-01T21:47:22.400Z,20.40
2022-11-01T21:49:31.635Z,20.40
2022-11-01T21:51:38.860Z,20.40
2022-11-01T21:53:46.148Z,20.20
2022-11-01T21:55:53.326Z,20.20
2022-11-01T21:58:00.449Z,20.10
2022-11-01T22:00:10.046Z,20.10
2022-11-01T22:02:18.166Z,20.10
2022-11-01T22:04:28.791Z,20.10
2022-11-01T22:06:35.980Z,20.10
2022-11-01T22:08:42.969Z,20.10
2022-11-01T22:10:50.254Z,20.10
2022-11-01T22:12:57.142Z,20.10
2022-11-01T22:15:04.106Z,20.10
2022-11-01T22:17:12.876Z,20.10
2022-11-01T22:19:20.056Z,20.10
2022-11-01T22:21:27.750Z,20.00
2022-11-01T22:23:34.677Z,20.00
2022-11-01T22:25:41.990Z,20.10
2022-11-01T22:27:49.654Z,20.10
2022-11-01T22:29:56.970Z,20.20
2022-11-01T22:32:04.002Z,20.20
2022-11-01T22:34:12.926Z,20.20
2022-11-01T22:36:26.979Z,20.20
2022-11-01T22:38:38.565Z,20.20
2022-11-01T22:40:45.771Z,20.20
2022-11-01T22:42:57.896Z,20.20
2022-11-01T22:45:05.177Z,20.20
2022-11-01T22:47:21.781Z,20.30
2022-11-01T22:49:32.290Z,20.30
2022-11-01T22:51:44.089Z,20.30
2022-11-01T22:53:50.545Z,20.30
2022-11-01T22:55:59.211Z,20.30
2022-11-01T22:58:19.450Z,20.30
2022-11-01T23:00:32.877Z,20.30
2022-11-01T23:02:42.299Z,20.30
2022-11-01T23:04:51.234Z,20.20
2022-11-01T23:07:03.331Z,20.20
2022-11-01T23:09:18.243Z,20.10
2022-11-01T23:11:42.013Z,20.00
2022-11-01T23:14:06.092Z,19.90
2022-11-01T23:16:27.355Z,19.90
2022-11-01T23:18:36.024Z,19.90
2022-11-01T23:20:46.017Z,19.90
2022-11-01T23:22:53.148Z,19.90
2022-11-01T23:25:00.585Z,19.90
2022-11-01T23:27:07.870Z,19.90
2022-11-01T23:29:15.716Z,19.90
2022-11-01T23:31:23.768Z,19.90
2022-11-01T23:33:38.125Z,19.80
2022-11-01T23:35:55.797Z,19.80
2022-11-01T23:38:03.029Z,19.80
2022-11-01T23:40:18.402Z,19.80
2022-11-01T23:42:28.452Z,19.90
2022-11-01T23:44:37.735Z,19.90
2022-11-01T23:46:44.964Z,19.80
2022-11-01T23:48:52.718Z,19.80
2022-11-01T23:51:01.837Z,19.80
2022-11-01T23:53:13.849Z,19.80
2022-11-01T23:55:26.035Z,19.90
2022-11-01T23:57:33.372Z,19.90
2022-11-01T23:59:40.650Z,19.90
